createdAt,value
2016-09-26T00:00:58.189Z,-95
2016-09-26T00:01:58.192Z,-95
2016-09-26T00:02:58.335Z,-95
2016-09-26T00:03:58.155Z,-94
2016-09-26T00:04:58.222Z,-94
2016-09-26T00:05:58.086Z,-94
2016-09-26T00:06:58.308Z,-94
2016-09-26T00:07:58.194Z,-94
2016-09-26T00:08:58.146Z,-94
2016-09-26T00:09:58.204Z,-93
2016-09-26T00:10:58.177Z,-94
2016-09-26T00:11:58.299Z,-94
2016-09-26T00:12:58.324Z,-93
2016-09-26T00:13:58.226Z,-94
2016-09-26T00:14:58.234Z,-94
2016-09-26T00:15:58.161Z,-94
2016-09-26T00:16:58.271Z,-95
2016-09-26T00:17:58.238Z,-95
2016-09-26T00:18:58.522Z,-94
2016-09-26T00:19:58.193Z,-94
2016-09-26T00:20:58.260Z,-94
2016-09-26T00:21:58.153Z,-95
2016-09-26T00:22:58.192Z,-93
2016-09-26T00:23:58.312Z,-94
2016-09-26T00:24:58.306Z,-94
2016-09-26T00:25:58.347Z,-94
2016-09-26T00:26:58.266Z,-94
2016-09-26T00:27:58.267Z,-94
2016-09-26T00:28:58.249Z,-94
2016-09-26T00:29:58.375Z,-94
2016-09-26T00:30:58.300Z,-94
2016-09-26T00:31:58.302Z,-94
2016-09-26T00:32:58.320Z,-94
2016-09-26T00:33:58.249Z,-94
2016-09-26T00:34:58.492Z,-94
2016-09-26T00:35:58.374Z,-94
2016-09-26T00:36:58.270Z,-94
2016-09-26T00:37:58.368Z,-94
2016-09-26T00:38:58.398Z,-94
2016-09-26T00:39:58.273Z,-94
2016-09-26T00:40:58.276Z,-94
2016-09-26T00:41:58.350Z,-94
2016-09-26T00:42:58.230Z,-93
2016-09-26T00:43:58.357Z,-93
2016-09-26T00:44:58.379Z,-94
2016-09-26T00:45:58.322Z,-94
2016-09-26T00:46:58.314Z,-94
2016-09-26T00:47:58.366Z,-94
2016-09-26T00:48:58.310Z,-94
2016-09-26T00:49:58.344Z,-95
2016-09-26T00:50:58.420Z,-95
2016-09-26T00:51:58.383Z,-94
2016-09-26T00:52:58.338Z,-94
2016-09-26T00:53:58.393Z,-94
2016-09-26T00:54:58.345Z,-94
2016-09-26T00:55:58.394Z,-95
2016-09-26T00:56:58.338Z,-94
2016-09-26T00:57:58.398Z,-95
2016-09-26T00:58:58.282Z,-94
2016-09-26T00:59:58.439Z,-93
2016-09-26T01:00:58.392Z,-94
2016-09-26T01:01:58.371Z,-94
2016-09-26T01:02:58.337Z,-94
2016-09-26T01:03:58.325Z,-95
2016-09-26T01:04:58.386Z,-93
2016-09-26T01:05:58.400Z,-94
2016-09-26T01:06:58.507Z,-94
2016-09-26T01:07:58.389Z,-94
2016-09-26T01:08:58.424Z,-94
2016-09-26T01:09:58.322Z,-94
2016-09-26T01:10:58.328Z,-94
2016-09-26T01:11:58.420Z,-93
2016-09-26T01:12:58.363Z,-94
2016-09-26T01:13:58.341Z,-94
2016-09-26T01:14:58.450Z,-95
2016-09-26T01:15:58.383Z,-93
2016-09-26T01:16:58.510Z,-94
2016-09-26T01:17:58.473Z,-94
2016-09-26T01:18:58.427Z,-94
2016-09-26T01:19:58.478Z,-94
2016-09-26T01:20:58.325Z,-94
2016-09-26T01:21:58.345Z,-95
2016-09-26T01:22:58.490Z,-94
2016-09-26T01:23:58.472Z,-94
2016-09-26T01:24:58.423Z,-95
2016-09-26T01:25:58.429Z,-94
2016-09-26T01:26:58.450Z,-94
2016-09-26T01:27:58.522Z,-93
2016-09-26T01:28:58.489Z,-94
2016-09-26T01:29:58.495Z,-94
2016-09-26T01:30:58.461Z,-94
2016-09-26T01:31:58.469Z,-94
2016-09-26T01:32:58.426Z,-95
2016-09-26T01:33:58.410Z,-94
2016-09-26T01:34:58.375Z,-93
2016-09-26T01:35:58.508Z,-94
2016-09-26T01:36:58.503Z,-93
2016-09-26T01:37:58.474Z,-94
2016-09-26T01:38:58.635Z,-96
2016-09-26T01:39:58.326Z,-94
2016-09-26T01:40:58.463Z,-94
2016-09-26T01:41:58.428Z,-94
2016-09-26T01:42:58.444Z,-95
2016-09-26T01:43:58.591Z,-94
2016-09-26T01:44:58.519Z,-93
2016-09-26T01:45:58.494Z,-94
2016-09-26T01:46:58.529Z,-94
2016-09-26T01:47:58.543Z,-94
2016-09-26T01:48:58.487Z,-94
2016-09-26T01:49:58.512Z,-94
2016-09-26T01:50:58.604Z,-95
2016-09-26T01:51:58.595Z,-94
2016-09-26T01:52:58.597Z,-94
2016-09-26T01:53:58.417Z,-93
2016-09-26T01:54:58.696Z,-94
2016-09-26T01:55:58.499Z,-94
2016-09-26T01:56:58.521Z,-94
2016-09-26T01:57:58.593Z,-94
2016-09-26T01:58:58.525Z,-94
2016-09-26T01:59:58.523Z,-94
2016-09-26T02:00:58.498Z,-94
2016-09-26T02:01:58.596Z,-94
2016-09-26T02:02:58.534Z,-95
2016-09-26T02:03:58.525Z,-93
2016-09-26T02:04:58.486Z,-94
2016-09-26T02:05:58.547Z,-94
2016-09-26T02:06:58.484Z,-94
2016-09-26T02:07:58.527Z,-94
2016-09-26T02:08:58.537Z,-94
2016-09-26T02:09:58.522Z,-94
2016-09-26T02:10:58.705Z,-93
2016-09-26T02:11:58.496Z,-93
2016-09-26T02:12:58.603Z,-94
2016-09-26T02:13:58.592Z,-94
2016-09-26T02:14:58.625Z,-95
2016-09-26T02:15:58.527Z,-94
2016-09-26T02:16:58.471Z,-95
2016-09-26T02:17:58.603Z,-95
2016-09-26T02:18:58.631Z,-94
2016-09-26T02:19:58.584Z,-94
2016-09-26T02:20:58.608Z,-94
2016-09-26T02:21:58.623Z,-93
2016-09-26T02:22:58.668Z,-93
2016-09-26T02:23:58.512Z,-94
2016-09-26T02:24:58.600Z,-94
2016-09-26T02:25:58.600Z,-94
2016-09-26T02:26:58.773Z,-94
2016-09-26T02:27:58.682Z,-93
2016-09-26T02:28:58.623Z,-92
2016-09-26T02:29:58.692Z,-92
2016-09-26T02:30:58.591Z,-86
2016-09-26T02:31:58.638Z,-91
2016-09-26T02:32:58.633Z,-93
2016-09-26T02:33:58.644Z,-95
2016-09-26T02:34:58.706Z,-94
2016-09-26T02:35:58.548Z,-93
2016-09-26T02:36:58.652Z,-94
2016-09-26T02:37:58.615Z,-94
2016-09-26T02:38:58.566Z,-94
2016-09-26T02:39:58.665Z,-94
2016-09-26T02:40:58.725Z,-94
2016-09-26T02:41:58.500Z,-94
2016-09-26T02:42:58.682Z,-94
2016-09-26T02:43:58.655Z,-94
2016-09-26T02:44:58.722Z,-93
2016-09-26T02:45:58.653Z,-95
2016-09-26T02:46:58.708Z,-95
2016-09-26T02:47:58.732Z,-95
2016-09-26T02:48:58.682Z,-95
2016-09-26T02:49:58.632Z,-94
2016-09-26T02:50:58.601Z,-94
2016-09-26T02:51:58.721Z,-94
2016-09-26T02:52:58.661Z,-94
2016-09-26T02:53:58.680Z,-94
2016-09-26T02:54:58.651Z,-93
2016-09-26T02:55:58.700Z,-93
2016-09-26T02:56:58.651Z,-93
2016-09-26T02:57:58.691Z,-93
2016-09-26T02:58:58.739Z,-94
2016-09-26T02:59:58.676Z,-94
2016-09-26T03:00:58.763Z,-94
2016-09-26T03:01:58.705Z,-94
2016-09-26T03:02:58.769Z,-94
2016-09-26T03:03:58.779Z,-93
2016-09-26T03:04:58.793Z,-94
2016-09-26T03:05:58.729Z,-93
2016-09-26T03:06:58.712Z,-93
2016-09-26T03:07:58.769Z,-94
2016-09-26T03:08:58.790Z,-93
2016-09-26T03:09:58.611Z,-94
2016-09-26T03:10:58.688Z,-94
2016-09-26T03:11:58.742Z,-94
2016-09-26T03:12:58.781Z,-93
2016-09-26T03:13:58.825Z,-94
2016-09-26T03:14:58.895Z,-95
2016-09-26T03:15:58.706Z,-94
2016-09-26T03:16:58.700Z,-93
2016-09-26T03:17:58.677Z,-94
2016-09-26T03:18:58.727Z,-94
2016-09-26T03:19:58.726Z,-95
2016-09-26T03:20:58.733Z,-94
2016-09-26T03:21:58.829Z,-93
2016-09-26T03:22:58.675Z,-94
2016-09-26T03:23:58.812Z,-94
2016-09-26T03:24:58.763Z,-94
2016-09-26T03:25:58.816Z,-94
2016-09-26T03:26:58.765Z,-94
2016-09-26T03:27:58.773Z,-94
2016-09-26T03:28:58.789Z,-94
2016-09-26T03:29:58.764Z,-94
2016-09-26T03:30:58.948Z,-93
2016-09-26T03:31:58.805Z,-94
2016-09-26T03:32:58.800Z,-95
2016-09-26T03:33:58.847Z,-94
2016-09-26T03:34:58.806Z,-93
2016-09-26T03:35:58.756Z,-95
2016-09-26T03:36:58.725Z,-94
2016-09-26T03:37:58.722Z,-95
2016-09-26T03:38:58.830Z,-93
2016-09-26T03:39:58.875Z,-93
2016-09-26T03:40:58.846Z,-93
2016-09-26T03:41:58.813Z,-93
2016-09-26T03:42:58.781Z,-94
2016-09-26T03:43:58.874Z,-94
2016-09-26T03:44:58.841Z,-94
2016-09-26T03:45:58.838Z,-94
2016-09-26T03:46:58.956Z,-93
2016-09-26T03:47:58.689Z,-94
2016-09-26T03:48:58.757Z,-95
2016-09-26T03:49:58.841Z,-94
2016-09-26T03:50:58.850Z,-94
2016-09-26T03:51:58.943Z,-94
2016-09-26T03:52:58.748Z,-94
2016-09-26T03:53:58.863Z,-94
2016-09-26T03:54:58.912Z,-94
2016-09-26T03:55:58.854Z,-94
2016-09-26T03:56:58.874Z,-93
2016-09-26T03:57:58.841Z,-94
2016-09-26T03:58:58.818Z,-94
2016-09-26T03:59:58.822Z,-95
2016-09-26T04:00:58.843Z,-94
2016-09-26T04:01:58.892Z,-94
2016-09-26T04:02:59.014Z,-95
2016-09-26T04:03:58.829Z,-94
2016-09-26T04:04:58.858Z,-94
2016-09-26T04:05:58.824Z,-93
2016-09-26T04:06:58.898Z,-94
2016-09-26T04:07:58.933Z,-95
2016-09-26T04:08:58.811Z,-93
2016-09-26T04:09:58.931Z,-94
2016-09-26T04:10:58.870Z,-93
2016-09-26T04:11:58.931Z,-93
2016-09-26T04:12:59.195Z,-94
2016-09-26T04:13:58.920Z,-93
2016-09-26T04:14:58.934Z,-94
2016-09-26T04:15:58.865Z,-94
2016-09-26T04:16:58.997Z,-93
2016-09-26T04:17:58.975Z,-94
2016-09-26T04:18:59.050Z,-93
2016-09-26T04:19:58.840Z,-94
2016-09-26T04:20:58.996Z,-94
2016-09-26T04:21:59.020Z,-94
2016-09-26T04:22:58.948Z,-94
2016-09-26T04:23:59.062Z,-94
2016-09-26T04:24:58.942Z,-94
2016-09-26T04:25:59.040Z,-94
2016-09-26T04:26:58.997Z,-94
2016-09-26T04:27:58.917Z,-93
2016-09-26T04:28:58.976Z,-93
2016-09-26T04:29:59.038Z,-94
2016-09-26T04:30:58.835Z,-94
2016-09-26T04:31:58.958Z,-93
2016-09-26T04:32:58.882Z,-94
2016-09-26T04:33:58.890Z,-94
2016-09-26T04:34:59.151Z,-95
2016-09-26T04:35:59.024Z,-94
2016-09-26T04:36:59.053Z,-93
2016-09-26T04:37:58.912Z,-94
2016-09-26T04:38:58.986Z,-93
2016-09-26T04:39:59.039Z,-94
2016-09-26T04:40:58.931Z,-94
2016-09-26T04:41:59.060Z,-94
2016-09-26T04:42:58.928Z,-94
2016-09-26T04:43:58.932Z,-94
2016-09-26T04:44:59.016Z,-94
2016-09-26T04:45:58.922Z,-93
2016-09-26T04:46:58.974Z,-93
2016-09-26T04:47:58.915Z,-94
2016-09-26T04:48:59.100Z,-94
2016-09-26T04:49:59.022Z,-94
2016-09-26T04:50:59.224Z,-94
2016-09-26T04:51:59.064Z,-93
2016-09-26T04:52:58.938Z,-94
2016-09-26T04:53:59.006Z,-94
2016-09-26T04:54:59.031Z,-93
2016-09-26T04:55:59.101Z,-93
2016-09-26T04:56:58.954Z,-94
2016-09-26T04:57:59.101Z,-94
2016-09-26T04:58:59.043Z,-94
2016-09-26T04:59:59.083Z,-93
2016-09-26T05:00:59.088Z,-93
2016-09-26T05:01:59.146Z,-94
2016-09-26T05:02:58.993Z,-93
2016-09-26T05:03:59.159Z,-94
2016-09-26T05:04:59.055Z,-91
2016-09-26T05:05:58.988Z,-93
2016-09-26T05:06:59.216Z,-92
2016-09-26T05:07:59.098Z,-90
2016-09-26T05:08:58.962Z,-91
2016-09-26T05:09:59.078Z,-93
2016-09-26T05:10:59.051Z,-94
2016-09-26T05:11:59.076Z,-94
2016-09-26T05:12:59.036Z,-93
2016-09-26T05:13:58.910Z,-94
2016-09-26T05:14:59.119Z,-94
2016-09-26T05:16:01.377Z,-94
2016-09-26T05:16:59.150Z,-94
2016-09-26T05:17:59.111Z,-94
2016-09-26T05:18:59.159Z,-94
2016-09-26T05:19:59.110Z,-94
2016-09-26T05:20:59.114Z,-94
2016-09-26T05:21:59.135Z,-94
2016-09-26T05:22:59.338Z,-93
2016-09-26T05:23:59.188Z,-93
2016-09-26T05:24:59.141Z,-92
2016-09-26T05:25:59.063Z,-93
2016-09-26T05:26:59.145Z,-85
2016-09-26T05:27:59.100Z,-90
2016-09-26T05:28:59.140Z,-85
2016-09-26T05:29:59.090Z,-90
2016-09-26T05:30:59.020Z,-95
2016-09-26T05:31:59.211Z,-93
2016-09-26T05:32:59.113Z,-93
2016-09-26T05:33:59.069Z,-94
2016-09-26T05:34:59.187Z,-94
2016-09-26T05:35:59.026Z,-94
2016-09-26T05:36:59.115Z,-94
2016-09-26T05:37:59.122Z,-93
2016-09-26T05:38:59.292Z,-94
2016-09-26T05:39:59.148Z,-93
2016-09-26T05:40:59.134Z,-93
2016-09-26T05:41:59.094Z,-94
2016-09-26T05:42:59.257Z,-94
2016-09-26T05:43:59.204Z,-93
2016-09-26T05:44:59.223Z,-94
2016-09-26T05:45:59.125Z,-93
2016-09-26T05:46:59.142Z,-94
2016-09-26T05:47:59.158Z,-95
2016-09-26T05:48:59.230Z,-95
2016-09-26T05:49:59.184Z,-94
2016-09-26T05:50:59.218Z,-94
2016-09-26T05:51:59.138Z,-94
2016-09-26T05:52:59.088Z,-95
2016-09-26T05:53:59.211Z,-95
2016-09-26T05:54:59.328Z,-94
2016-09-26T05:55:59.211Z,-95
2016-09-26T05:56:59.206Z,-95
2016-09-26T05:57:59.205Z,-94
2016-09-26T05:58:59.191Z,-94
2016-09-26T05:59:59.178Z,-95
2016-09-26T06:00:59.201Z,-94
2016-09-26T06:01:59.128Z,-95
2016-09-26T06:02:59.255Z,-94
2016-09-26T06:03:59.148Z,-88
2016-09-26T06:04:59.263Z,-87
2016-09-26T06:05:59.069Z,-87
2016-09-26T06:06:59.137Z,-87
2016-09-26T06:07:59.231Z,-88
2016-09-26T06:08:59.197Z,-87
2016-09-26T06:09:59.229Z,-87
2016-09-26T06:10:59.439Z,-86
2016-09-26T06:11:59.234Z,-88
2016-09-26T06:12:59.153Z,-88
2016-09-26T06:13:59.227Z,-88
2016-09-26T06:14:59.127Z,-87
2016-09-26T06:15:59.236Z,-87
2016-09-26T06:16:59.246Z,-88
2016-09-26T06:17:59.209Z,-88
2016-09-26T06:18:59.251Z,-87
2016-09-26T06:19:59.262Z,-88
2016-09-26T06:20:59.563Z,-88
2016-09-26T06:21:59.194Z,-89
2016-09-26T06:22:59.247Z,-88
2016-09-26T06:23:59.282Z,-88
2016-09-26T06:24:59.349Z,-88
2016-09-26T06:25:59.102Z,-88
2016-09-26T06:26:59.393Z,-88
2016-09-26T06:27:59.328Z,-88
2016-09-26T06:28:59.273Z,-86
2016-09-26T06:29:59.212Z,-86
2016-09-26T06:30:59.319Z,-87
2016-09-26T06:31:59.295Z,-86
2016-09-26T06:32:59.315Z,-86
2016-09-26T06:33:59.316Z,-86
2016-09-26T06:34:59.331Z,-85
2016-09-26T06:35:59.397Z,-86
2016-09-26T06:36:59.390Z,-85
2016-09-26T06:37:59.205Z,-85
2016-09-26T06:38:59.870Z,-85
2016-09-26T06:39:59.233Z,-85
2016-09-26T06:40:59.318Z,-86
2016-09-26T06:41:59.266Z,-86
2016-09-26T06:42:59.415Z,-86
2016-09-26T06:43:59.343Z,-86
2016-09-26T06:44:59.238Z,-85
2016-09-26T06:45:59.304Z,-85
2016-09-26T06:46:59.433Z,-85
2016-09-26T06:47:59.361Z,-86
2016-09-26T06:48:59.321Z,-86
2016-09-26T06:49:59.346Z,-86
2016-09-26T06:50:59.331Z,-86
2016-09-26T06:51:59.400Z,-85
2016-09-26T06:52:59.395Z,-86
2016-09-26T06:53:59.612Z,-85
2016-09-26T06:54:59.522Z,-86
2016-09-26T06:55:59.540Z,-86
2016-09-26T06:56:59.541Z,-86
2016-09-26T06:57:59.492Z,-85
2016-09-26T06:58:59.467Z,-87
2016-09-26T06:59:59.437Z,-87
2016-09-26T07:00:59.481Z,-86
2016-09-26T07:01:59.482Z,-86
2016-09-26T07:02:59.344Z,-87
2016-09-26T07:03:59.504Z,-86
2016-09-26T07:04:59.439Z,-87
2016-09-26T07:05:59.418Z,-87
2016-09-26T07:06:59.434Z,-87
2016-09-26T07:07:59.424Z,-87
2016-09-26T07:08:59.671Z,-86
2016-09-26T07:09:59.378Z,-86
2016-09-26T07:10:59.511Z,-87
2016-09-26T07:11:59.408Z,-87
2016-09-26T07:12:59.497Z,-87
2016-09-26T07:13:59.446Z,-88
2016-09-26T07:14:59.935Z,-88
2016-09-26T07:15:59.352Z,-87
2016-09-26T07:16:59.471Z,-87
2016-09-26T07:17:59.535Z,-87
2016-09-26T07:18:59.422Z,-87
2016-09-26T07:19:59.755Z,-88
2016-09-26T07:20:59.502Z,-88
2016-09-26T07:21:59.604Z,-89
2016-09-26T07:22:59.359Z,-89
2016-09-26T07:23:59.541Z,-88
2016-09-26T07:24:59.767Z,-88
2016-09-26T07:25:59.576Z,-88
2016-09-26T07:26:59.481Z,-87
2016-09-26T07:27:59.390Z,-88
2016-09-26T07:28:59.559Z,-89
2016-09-26T07:29:59.573Z,-89
2016-09-26T07:30:59.540Z,-88
2016-09-26T07:31:59.477Z,-88
2016-09-26T07:32:59.653Z,-88
2016-09-26T07:33:59.504Z,-88
2016-09-26T07:34:59.561Z,-88
2016-09-26T07:35:59.642Z,-87
2016-09-26T07:36:59.567Z,-88
2016-09-26T07:37:59.599Z,-87
2016-09-26T07:38:59.571Z,-88
2016-09-26T07:39:59.480Z,-88
2016-09-26T07:40:59.596Z,-87
2016-09-26T07:41:59.569Z,-88
2016-09-26T07:42:59.632Z,-88
2016-09-26T07:43:59.461Z,-88
2016-09-26T07:44:59.606Z,-88
2016-09-26T07:45:59.553Z,-87
2016-09-26T07:46:59.634Z,-89
2016-09-26T07:47:59.410Z,-91
2016-09-26T07:48:59.517Z,-95
2016-09-26T07:49:59.542Z,-91
2016-09-26T07:50:59.486Z,-91
2016-09-26T07:51:59.451Z,-91
2016-09-26T07:52:59.576Z,-91
2016-09-26T07:53:59.564Z,-90
2016-09-26T07:54:59.651Z,-90
2016-09-26T07:55:59.629Z,-90
2016-09-26T07:56:59.588Z,-91
2016-09-26T07:57:59.668Z,-92
2016-09-26T07:58:59.551Z,-92
2016-09-26T07:59:59.648Z,-93
2016-09-26T08:00:59.618Z,-93
2016-09-26T08:01:59.641Z,-92
2016-09-26T08:02:59.690Z,-92
2016-09-26T08:03:59.727Z,-93
2016-09-26T08:04:59.516Z,-94
2016-09-26T08:05:59.582Z,-93
2016-09-26T08:07:00.371Z,-92
2016-09-26T08:07:59.613Z,-92
2016-09-26T08:08:59.619Z,-93
2016-09-26T08:09:59.756Z,-91
2016-09-26T08:10:59.500Z,-91
2016-09-26T08:11:59.570Z,-92
2016-09-26T08:12:59.992Z,-91
2016-09-26T08:13:59.468Z,-93
2016-09-26T08:14:59.635Z,-96
2016-09-26T08:15:59.683Z,-88
2016-09-26T08:16:59.594Z,-96
2016-09-26T08:18:00.298Z,-93
2016-09-26T08:19:00.041Z,-95
2016-09-26T08:19:59.659Z,-96
2016-09-26T08:20:59.636Z,-92
2016-09-26T08:21:59.631Z,-94
2016-09-26T08:22:59.586Z,-94
2016-09-26T08:23:59.568Z,-93
2016-09-26T08:24:59.753Z,-96
2016-09-26T08:25:59.642Z,-95
2016-09-26T08:26:59.685Z,-96
2016-09-26T08:27:59.625Z,-96
2016-09-26T08:28:59.614Z,-96
2016-09-26T08:29:59.626Z,-96
2016-09-26T08:30:59.622Z,-95
2016-09-26T08:31:59.603Z,-87
2016-09-26T08:32:59.748Z,-87
2016-09-26T08:33:59.662Z,-96
2016-09-26T08:34:59.825Z,-96
2016-09-26T08:35:59.645Z,-95
2016-09-26T08:36:59.681Z,-95
2016-09-26T08:37:59.663Z,-95
2016-09-26T08:38:59.665Z,-95
2016-09-26T08:39:59.868Z,-95
2016-09-26T08:40:59.880Z,-85
2016-09-26T08:41:59.772Z,-86
2016-09-26T08:42:59.640Z,-95
2016-09-26T08:43:59.752Z,-95
2016-09-26T08:45:00.208Z,-96
2016-09-26T08:45:59.729Z,-94
2016-09-26T08:46:59.599Z,-92
2016-09-26T08:47:59.789Z,-91
2016-09-26T08:48:59.697Z,-91
2016-09-26T08:49:59.804Z,-90
2016-09-26T08:51:00.016Z,-91
2016-09-26T08:51:59.732Z,-90
2016-09-26T08:52:59.657Z,-90
2016-09-26T08:53:59.733Z,-89
2016-09-26T08:54:59.761Z,-90
2016-09-26T08:55:59.984Z,-90
2016-09-26T08:56:59.763Z,-91
2016-09-26T08:57:59.801Z,-91
2016-09-26T08:58:59.695Z,-91
2016-09-26T08:59:59.677Z,-91
2016-09-26T09:01:00.141Z,-90
2016-09-26T09:01:59.883Z,-90
2016-09-26T09:02:59.730Z,-92
2016-09-26T09:03:59.784Z,-91
2016-09-26T09:04:59.821Z,-92
2016-09-26T09:06:00.075Z,-91
2016-09-26T09:07:00.069Z,-90
2016-09-26T09:07:59.695Z,-93
2016-09-26T09:08:59.845Z,-93
2016-09-26T09:09:59.793Z,-88
2016-09-26T09:10:59.698Z,-87
2016-09-26T09:11:59.789Z,-86
2016-09-26T09:12:59.837Z,-87
2016-09-26T09:13:59.608Z,-87
2016-09-26T09:14:59.899Z,-87
2016-09-26T09:15:59.742Z,-87
2016-09-26T09:16:59.917Z,-86
2016-09-26T09:17:59.759Z,-88
2016-09-26T09:18:59.728Z,-87
2016-09-26T09:19:59.743Z,-87
2016-09-26T09:20:59.807Z,-87
2016-09-26T09:21:59.869Z,-87
2016-09-26T09:22:59.899Z,-87
2016-09-26T09:23:59.889Z,-87
2016-09-26T09:24:59.777Z,-86
2016-09-26T09:25:59.921Z,-86
2016-09-26T09:26:59.770Z,-87
2016-09-26T09:27:59.841Z,-86
2016-09-26T09:29:46.846Z,-86
2016-09-26T09:31:05.347Z,-87
2016-09-26T09:32:09.101Z,-87
2016-09-26T09:33:25.129Z,-87
2016-09-26T09:34:07.228Z,-87
2016-09-26T09:34:59.765Z,-87
2016-09-26T09:35:59.899Z,-87
2016-09-26T09:36:59.773Z,-87
2016-09-26T09:37:59.868Z,-87
2016-09-26T09:39:00.138Z,-87
2016-09-26T09:39:59.821Z,-87
2016-09-26T09:40:59.954Z,-88
2016-09-26T09:41:59.919Z,-87
2016-09-26T09:42:59.860Z,-87
2016-09-26T09:44:00.048Z,-87
2016-09-26T09:44:59.941Z,-87
2016-09-26T09:45:59.834Z,-87
2016-09-26T09:46:59.822Z,-88
2016-09-26T09:47:59.801Z,-88
2016-09-26T09:49:00.200Z,-88
2016-09-26T09:49:59.751Z,-88
2016-09-26T09:50:59.985Z,-86
2016-09-26T09:51:59.928Z,-87
2016-09-26T09:52:59.941Z,-88
2016-09-26T09:53:59.796Z,-89
2016-09-26T09:55:00.039Z,-88
2016-09-26T09:55:59.960Z,-88
2016-09-26T09:56:59.909Z,-86
2016-09-26T09:57:59.851Z,-86
2016-09-26T09:58:59.939Z,-87
2016-09-26T09:59:59.975Z,-87
2016-09-26T10:00:59.923Z,-87
2016-09-26T10:01:59.865Z,-88
2016-09-26T10:02:59.915Z,-88
2016-09-26T10:04:00.046Z,-87
2016-09-26T10:05:00.090Z,-87
2016-09-26T10:06:00.026Z,-86
2016-09-26T10:07:00.027Z,-87
2016-09-26T10:08:00.104Z,-87
2016-09-26T10:08:59.973Z,-87
2016-09-26T10:10:00.807Z,-88
2016-09-26T10:11:00.048Z,-88
2016-09-26T10:11:59.863Z,-89
2016-09-26T10:12:59.958Z,-88
2016-09-26T10:13:59.868Z,-88
2016-09-26T10:15:00.097Z,-89
2016-09-26T10:16:00.081Z,-88
2016-09-26T10:16:59.945Z,-89
2016-09-26T10:18:00.002Z,-89
2016-09-26T10:18:59.983Z,-89
2016-09-26T10:20:00.036Z,-89
2016-09-26T10:21:00.055Z,-88
2016-09-26T10:22:00.062Z,-87
2016-09-26T10:22:59.994Z,-89
2016-09-26T10:24:00.037Z,-88
2016-09-26T10:25:00.019Z,-88
2016-09-26T10:26:00.101Z,-88
2016-09-26T10:27:00.289Z,-87
2016-09-26T10:28:00.575Z,-89
2016-09-26T10:29:00.050Z,-88
2016-09-26T10:30:00.018Z,-89
2016-09-26T10:30:59.971Z,-89
2016-09-26T10:32:00.022Z,-87
2016-09-26T10:33:00.043Z,-87
2016-09-26T10:34:00.149Z,-87
2016-09-26T10:35:00.112Z,-90
2016-09-26T10:36:00.009Z,-89
2016-09-26T10:37:00.134Z,-90
2016-09-26T10:37:59.994Z,-89
2016-09-26T10:39:00.048Z,-90
2016-09-26T10:40:00.108Z,-89
2016-09-26T10:41:00.111Z,-90
2016-09-26T10:42:00.011Z,-89
2016-09-26T10:43:00.301Z,-89
2016-09-26T10:43:59.968Z,-91
2016-09-26T10:45:00.118Z,-90
2016-09-26T10:46:00.213Z,-90
2016-09-26T10:47:00.050Z,-91
2016-09-26T10:48:00.155Z,-90
2016-09-26T10:49:00.095Z,-88
2016-09-26T10:50:00.205Z,-89
2016-09-26T10:51:00.032Z,-88
2016-09-26T10:52:00.156Z,-87
2016-09-26T10:53:00.200Z,-88
2016-09-26T10:54:00.182Z,-87
2016-09-26T10:55:00.032Z,-88
2016-09-26T10:56:00.063Z,-90
2016-09-26T10:57:00.086Z,-90
2016-09-26T10:58:00.182Z,-89
2016-09-26T10:59:00.381Z,-90
2016-09-26T11:00:00.102Z,-91
2016-09-26T11:01:00.156Z,-89
2016-09-26T11:02:00.132Z,-90
2016-09-26T11:03:00.192Z,-88
2016-09-26T11:04:00.105Z,-89
2016-09-26T11:05:00.195Z,-90
2016-09-26T11:06:00.126Z,-91
2016-09-26T11:07:00.096Z,-90
2016-09-26T11:08:00.134Z,-90
2016-09-26T11:09:00.120Z,-89
2016-09-26T11:10:00.177Z,-89
2016-09-26T11:11:00.325Z,-88
2016-09-26T11:12:00.281Z,-91
2016-09-26T11:13:00.169Z,-92
2016-09-26T11:14:00.137Z,-92
2016-09-26T11:15:01.685Z,-90
2016-09-26T11:16:00.538Z,-90
2016-09-26T11:17:00.146Z,-92
2016-09-26T11:18:00.239Z,-92
2016-09-26T11:19:00.159Z,-91
2016-09-26T11:20:00.201Z,-93
2016-09-26T11:21:00.098Z,-92
2016-09-26T11:22:00.071Z,-92
2016-09-26T11:23:00.216Z,-93
2016-09-26T11:24:00.299Z,-90
2016-09-26T11:25:00.454Z,-90
2016-09-26T11:26:00.227Z,-90
2016-09-26T11:27:00.223Z,-92
2016-09-26T11:28:01.320Z,-87
2016-09-26T11:29:00.174Z,-87
2016-09-26T11:30:00.230Z,-87
2016-09-26T11:31:00.397Z,-87
2016-09-26T11:32:00.990Z,-87
2016-09-26T11:33:00.110Z,-88
2016-09-26T11:34:00.167Z,-90
2016-09-26T11:35:00.293Z,-90
2016-09-26T11:36:00.119Z,-90
2016-09-26T11:37:00.292Z,-90
2016-09-26T11:38:00.171Z,-89
2016-09-26T11:39:00.220Z,-89
2016-09-26T11:40:00.326Z,-89
2016-09-26T11:41:00.301Z,-88
2016-09-26T11:42:00.210Z,-89
2016-09-26T11:43:00.506Z,-89
2016-09-26T11:44:00.338Z,-88
2016-09-26T11:45:00.230Z,-89
2016-09-26T11:46:00.274Z,-89
2016-09-26T11:47:00.560Z,-89
2016-09-26T11:48:00.318Z,-89
2016-09-26T11:49:00.346Z,-89
2016-09-26T11:50:00.315Z,-89
2016-09-26T11:51:00.272Z,-89
2016-09-26T11:52:00.504Z,-87
2016-09-26T11:53:00.213Z,-88
2016-09-26T11:54:00.805Z,-88
2016-09-26T11:55:00.374Z,-89
2016-09-26T11:56:00.227Z,-88
2016-09-26T11:57:00.267Z,-89
2016-09-26T11:58:00.264Z,-88
2016-09-26T11:59:00.348Z,-89
2016-09-26T12:00:00.233Z,-88
2016-09-26T12:01:00.468Z,-89
2016-09-26T12:02:00.989Z,-88
2016-09-26T12:03:00.333Z,-88
2016-09-26T12:04:00.374Z,-87
2016-09-26T12:05:00.417Z,-88
2016-09-26T12:06:00.246Z,-89
2016-09-26T12:07:00.597Z,-86
2016-09-26T12:08:00.501Z,-88
2016-09-26T12:09:00.364Z,-87
2016-09-26T12:10:00.196Z,-87
2016-09-26T12:11:00.333Z,-87
2016-09-26T12:12:00.331Z,-87
2016-09-26T12:13:00.301Z,-88
2016-09-26T12:14:01.715Z,-88
2016-09-26T12:15:00.362Z,-88
2016-09-26T12:16:00.369Z,-89
2016-09-26T12:17:00.383Z,-89
2016-09-26T12:18:00.375Z,-89
2016-09-26T12:19:01.386Z,-90
2016-09-26T12:20:00.366Z,-88
2016-09-26T12:21:00.340Z,-89
2016-09-26T12:22:00.276Z,-88
2016-09-26T12:23:00.342Z,-87
2016-09-26T12:24:00.786Z,-87
2016-09-26T12:25:00.302Z,-87
2016-09-26T12:26:00.225Z,-87
2016-09-26T12:27:00.561Z,-87
2016-09-26T12:28:00.323Z,-86
2016-09-26T12:29:00.712Z,-87
2016-09-26T12:30:00.331Z,-87
2016-09-26T12:31:00.380Z,-88
2016-09-26T12:32:00.504Z,-87
2016-09-26T12:33:00.416Z,-87
2016-09-26T12:34:00.332Z,-88
2016-09-26T12:35:00.701Z,-87
2016-09-26T12:36:00.499Z,-87
2016-09-26T12:37:00.323Z,-87
2016-09-26T12:38:00.473Z,-87
2016-09-26T12:39:00.472Z,-87
2016-09-26T12:40:00.457Z,-86
2016-09-26T12:41:00.441Z,-87
2016-09-26T12:42:00.418Z,-87
2016-09-26T12:43:00.436Z,-86
2016-09-26T12:44:00.379Z,-86
2016-09-26T12:45:00.551Z,-87
2016-09-26T12:46:00.537Z,-86
2016-09-26T12:47:01.010Z,-86
2016-09-26T12:48:00.509Z,-87
2016-09-26T12:49:00.520Z,-87
2016-09-26T12:50:00.347Z,-86
2016-09-26T12:51:00.580Z,-87
2016-09-26T12:52:00.561Z,-87
2016-09-26T12:53:00.482Z,-87
2016-09-26T12:54:00.524Z,-87
2016-09-26T12:55:00.335Z,-87
2016-09-26T12:56:00.606Z,-87
2016-09-26T12:57:00.407Z,-86
2016-09-26T12:58:00.499Z,-88
2016-09-26T12:59:00.539Z,-87
2016-09-26T13:00:00.499Z,-87
2016-09-26T13:01:00.828Z,-88
2016-09-26T13:02:00.352Z,-87
2016-09-26T13:03:00.468Z,-88
2016-09-26T13:04:01.420Z,-87
2016-09-26T13:05:01.254Z,-87
2016-09-26T13:06:01.008Z,-87
2016-09-26T13:07:01.462Z,-87
2016-09-26T13:08:01.177Z,-87
2016-09-26T13:09:00.452Z,-87
2016-09-26T13:10:00.593Z,-87
2016-09-26T13:11:00.511Z,-87
2016-09-26T13:12:00.819Z,-87
2016-09-26T13:13:00.531Z,-87
2016-09-26T13:14:00.720Z,-87
2016-09-26T13:15:00.465Z,-87
2016-09-26T13:16:00.587Z,-88
2016-09-26T13:17:00.753Z,-88
2016-09-26T13:18:00.576Z,-88
2016-09-26T13:19:00.482Z,-88
2016-09-26T13:20:00.579Z,-87
2016-09-26T13:21:00.498Z,-88
2016-09-26T13:22:00.605Z,-87
2016-09-26T13:23:00.695Z,-88
2016-09-26T13:24:00.627Z,-89
2016-09-26T13:25:00.715Z,-88
2016-09-26T13:26:00.617Z,-89
2016-09-26T13:27:00.702Z,-89
2016-09-26T13:28:00.651Z,-89
2016-09-26T13:29:00.643Z,-88
2016-09-26T13:30:00.522Z,-88
2016-09-26T13:31:00.592Z,-88
2016-09-26T13:32:00.582Z,-89
2016-09-26T13:33:00.517Z,-88
2016-09-26T13:34:00.574Z,-88
2016-09-26T13:35:00.653Z,-87
2016-09-26T13:36:00.654Z,-88
2016-09-26T13:37:00.596Z,-89
2016-09-26T13:38:00.699Z,-89
2016-09-26T13:39:00.738Z,-89
2016-09-26T13:40:00.540Z,-88
2016-09-26T13:41:00.562Z,-88
2016-09-26T13:42:00.622Z,-88
2016-09-26T13:43:00.531Z,-89
2016-09-26T13:44:00.871Z,-89
2016-09-26T13:45:00.545Z,-88
2016-09-26T13:46:00.765Z,-89
2016-09-26T13:47:00.593Z,-89
2016-09-26T13:48:00.673Z,-89